sensor_id;sensor_type;location;lat;lon;timestamp;P1;durP1;ratioP1;P2;durP2;ratioP2
21095;SDS011;10706;49.036;12.112;2023-09-07T00:00:48;12.93;;;6.13;;
21095;SDS011;10706;49.036;12.112;2023-09-07T00:03:14;13.48;;;5.95;;
21095;SDS011;10706;49.036;12.112;2023-09-07T00:05:40;13.60;;;6.40;;
21095;SDS011;10706;49.036;12.112;2023-09-07T00:08:06;16.25;;;6.55;;
21095;SDS011;10706;49.036;12.112;2023-09-07T00:10:32;15.35;;;6.88;;
21095;SDS011;10706;49.036;12.112;2023-09-07T00:13:02;15.40;;;6.70;;
21095;SDS011;10706;49.036;12.112;2023-09-07T00:15:29;13.13;;;6.60;;
21095;SDS011;10706;49.036;12.112;2023-09-07T00:18:00;17.45;;;6.85;;
21095;SDS011;10706;49.036;12.112;2023-09-07T00:20:25;15.20;;;7.03;;
21095;SDS011;10706;49.036;12.112;2023-09-07T00:22:51;14.13;;;6.60;;
21095;SDS011;10706;49.036;12.112;2023-09-07T00:25:17;13.90;;;6.47;;
21095;SDS011;10706;49.036;12.112;2023-09-07T00:27:43;13.60;;;6.55;;
21095;SDS011;10706;49.036;12.112;2023-09-07T00:30:09;13.60;;;6.40;;
21095;SDS011;10706;49.036;12.112;2023-09-07T00:32:35;17.10;;;6.60;;
21095;SDS011;10706;49.036;12.112;2023-09-07T00:35:03;18.92;;;6.38;;
21095;SDS011;10706;49.036;12.112;2023-09-07T00:37:30;13.85;;;6.15;;
21095;SDS011;10706;49.036;12.112;2023-09-07T00:39:56;14.05;;;6.50;;
21095;SDS011;10706;49.036;12.112;2023-09-07T00:42:22;13.27;;;6.47;;
21095;SDS011;10706;49.036;12.112;2023-09-07T00:44:48;15.85;;;7.43;;
21095;SDS011;10706;49.036;12.112;2023-09-07T00:47:14;13.48;;;6.70;;
21095;SDS011;10706;49.036;12.112;2023-09-07T00:49:41;13.50;;;6.60;;
21095;SDS011;10706;49.036;12.112;2023-09-07T00:52:07;15.38;;;7.05;;
21095;SDS011;10706;49.036;12.112;2023-09-07T00:54:34;14.02;;;6.80;;
21095;SDS011;10706;49.036;12.112;2023-09-07T00:57:03;12.90;;;6.40;;
21095;SDS011;10706;49.036;12.112;2023-09-07T00:59:31;16.60;;;7.38;;
21095;SDS011;10706;49.036;12.112;2023-09-07T01:01:58;14.15;;;6.75;;
21095;SDS011;10706;49.036;12.112;2023-09-07T01:04:24;16.35;;;7.20;;
21095;SDS011;10706;49.036;12.112;2023-09-07T01:06:56;14.65;;;6.15;;
21095;SDS011;10706;49.036;12.112;2023-09-07T01:09:29;14.25;;;6.57;;
21095;SDS011;10706;49.036;12.112;2023-09-07T01:11:57;13.32;;;6.35;;
21095;SDS011;10706;49.036;12.112;2023-09-07T01:14:22;13.35;;;5.88;;
21095;SDS011;10706;49.036;12.112;2023-09-07T01:16:49;11.57;;;5.20;;
21095;SDS011;10706;49.036;12.112;2023-09-07T01:19:15;12.73;;;5.80;;
21095;SDS011;10706;49.036;12.112;2023-09-07T01:21:41;11.23;;;5.53;;
21095;SDS011;10706;49.036;12.112;2023-09-07T01:24:08;13.75;;;5.03;;
21095;SDS011;10706;49.036;12.112;2023-09-07T01:26:36;12.13;;;5.55;;
21095;SDS011;10706;49.036;12.112;2023-09-07T01:29:05;12.40;;;5.20;;
21095;SDS011;10706;49.036;12.112;2023-09-07T01:31:38;10.45;;;4.70;;
21095;SDS011;10706;49.036;12.112;2023-09-07T01:34:04;12.75;;;5.20;;
21095;SDS011;10706;49.036;12.112;2023-09-07T01:36:31;12.55;;;5.13;;
21095;SDS011;10706;49.036;12.112;2023-09-07T01:38:57;13.75;;;4.53;;
21095;SDS011;10706;49.036;12.112;2023-09-07T01:41:23;12.30;;;5.40;;
21095;SDS011;10706;49.036;12.112;2023-09-07T01:43:49;12.52;;;5.35;;
21095;SDS011;10706;49.036;12.112;2023-09-07T01:46:14;11.38;;;5.15;;
21095;SDS011;10706;49.036;12.112;2023-09-07T01:48:40;14.48;;;5.80;;
21095;SDS011;10706;49.036;12.112;2023-09-07T01:51:07;13.10;;;6.03;;
21095;SDS011;10706;49.036;12.112;2023-09-07T01:53:33;15.07;;;5.75;;
21095;SDS011;10706;49.036;12.112;2023-09-07T01:55:59;13.68;;;5.90;;
21095;SDS011;10706;49.036;12.112;2023-09-07T01:58:24;13.07;;;5.63;;
21095;SDS011;10706;49.036;12.112;2023-09-07T02:00:52;12.63;;;6.00;;
21095;SDS011;10706;49.036;12.112;2023-09-07T02:03:22;12.25;;;5.43;;
21095;SDS011;10706;49.036;12.112;2023-09-07T02:05:47;14.07;;;5.43;;
21095;SDS011;10706;49.036;12.112;2023-09-07T02:08:13;13.55;;;5.50;;
21095;SDS011;10706;49.036;12.112;2023-09-07T02:10:39;10.80;;;4.65;;
21095;SDS011;10706;49.036;12.112;2023-09-07T02:13:04;12.18;;;5.20;;
21095;SDS011;10706;49.036;12.112;2023-09-07T02:15:30;11.57;;;4.97;;
21095;SDS011;10706;49.036;12.112;2023-09-07T02:17:56;12.13;;;4.93;;
21095;SDS011;10706;49.036;12.112;2023-09-07T02:20:22;10.73;;;5.30;;
21095;SDS011;10706;49.036;12.112;2023-09-07T02:22:47;11.23;;;5.50;;
21095;SDS011;10706;49.036;12.112;2023-09-07T02:25:13;12.20;;;5.00;;
21095;SDS011;10706;49.036;12.112;2023-09-07T02:27:40;12.13;;;5.30;;
21095;SDS011;10706;49.036;12.112;2023-09-07T02:30:05;12.70;;;4.75;;
21095;SDS011;10706;49.036;12.112;2023-09-07T02:32:32;11.55;;;5.30;;
21095;SDS011;10706;49.036;12.112;2023-09-07T02:34:58;13.18;;;5.55;;
21095;SDS011;10706;49.036;12.112;2023-09-07T02:37:23;13.02;;;5.70;;
21095;SDS011;10706;49.036;12.112;2023-09-07T02:39:49;11.45;;;5.47;;
21095;SDS011;10706;49.036;12.112;2023-09-07T02:42:15;12.32;;;5.45;;
21095;SDS011;10706;49.036;12.112;2023-09-07T02:44:41;11.65;;;4.88;;
21095;SDS011;10706;49.036;12.112;2023-09-07T02:47:07;12.13;;;5.05;;
21095;SDS011;10706;49.036;12.112;2023-09-07T02:49:32;12.23;;;5.30;;
21095;SDS011;10706;49.036;12.112;2023-09-07T02:51:58;12.00;;;5.22;;
21095;SDS011;10706;49.036;12.112;2023-09-07T02:54:24;12.15;;;5.50;;
21095;SDS011;10706;49.036;12.112;2023-09-07T02:56:50;15.35;;;5.53;;
21095;SDS011;10706;49.036;12.112;2023-09-07T02:59:15;13.18;;;4.97;;
21095;SDS011;10706;49.036;12.112;2023-09-07T03:01:41;13.25;;;5.60;;
21095;SDS011;10706;49.036;12.112;2023-09-07T03:04:07;12.65;;;5.75;;
21095;SDS011;10706;49.036;12.112;2023-09-07T03:06:32;13.10;;;5.25;;
21095;SDS011;10706;49.036;12.112;2023-09-07T03:08:59;17.92;;;5.85;;
21095;SDS011;10706;49.036;12.112;2023-09-07T03:11:25;13.10;;;5.80;;
21095;SDS011;10706;49.036;12.112;2023-09-07T03:13:50;16.30;;;5.93;;
21095;SDS011;10706;49.036;12.112;2023-09-07T03:16:17;12.48;;;6.18;;
21095;SDS011;10706;49.036;12.112;2023-09-07T03:18:43;13.10;;;5.88;;
21095;SDS011;10706;49.036;12.112;2023-09-07T03:21:10;13.05;;;5.75;;
21095;SDS011;10706;49.036;12.112;2023-09-07T03:23:36;13.38;;;5.88;;
21095;SDS011;10706;49.036;12.112;2023-09-07T03:26:01;20.23;;;7.47;;
21095;SDS011;10706;49.036;12.112;2023-09-07T03:28:27;16.15;;;6.32;;
21095;SDS011;10706;49.036;12.112;2023-09-07T03:30:53;14.52;;;6.32;;
21095;SDS011;10706;49.036;12.112;2023-09-07T03:33:20;15.90;;;6.75;;
21095;SDS011;10706;49.036;12.112;2023-09-07T03:35:46;13.60;;;6.35;;
21095;SDS011;10706;49.036;12.112;2023-09-07T03:38:12;13.50;;;6.38;;
21095;SDS011;10706;49.036;12.112;2023-09-07T03:40:38;15.02;;;6.35;;
21095;SDS011;10706;49.036;12.112;2023-09-07T03:43:04;14.50;;;6.38;;
21095;SDS011;10706;49.036;12.112;2023-09-07T03:45:30;13.35;;;6.40;;
21095;SDS011;10706;49.036;12.112;2023-09-07T03:47:56;15.07;;;6.95;;
21095;SDS011;10706;49.036;12.112;2023-09-07T03:50:21;13.65;;;6.22;;
21095;SDS011;10706;49.036;12.112;2023-09-07T03:52:47;13.73;;;6.28;;
21095;SDS011;10706;49.036;12.112;2023-09-07T03:55:13;13.10;;;6.22;;
21095;SDS011;10706;49.036;12.112;2023-09-07T03:57:39;12.50;;;6.03;;
21095;SDS011;10706;49.036;12.112;2023-09-07T04:00:06;14.63;;;6.20;;
21095;SDS011;10706;49.036;12.112;2023-09-07T04:02:33;12.27;;;5.68;;
21095;SDS011;10706;49.036;12.112;2023-09-07T04:04:59;15.65;;;5.88;;
21095;SDS011;10706;49.036;12.112;2023-09-07T04:07:30;13.45;;;5.45;;
21095;SDS011;10706;49.036;12.112;2023-09-07T04:09:56;13.20;;;5.07;;
21095;SDS011;10706;49.036;12.112;2023-09-07T04:12:22;12.52;;;5.57;;
21095;SDS011;10706;49.036;12.112;2023-09-07T04:14:48;13.25;;;5.78;;
21095;SDS011;10706;49.036;12.112;2023-09-07T04:17:14;15.07;;;6.13;;
21095;SDS011;10706;49.036;12.112;2023-09-07T04:19:39;14.70;;;5.90;;
21095;SDS011;10706;49.036;12.112;2023-09-07T04:22:05;13.95;;;6.28;;
21095;SDS011;10706;49.036;12.112;2023-09-07T04:24:31;13.15;;;5.43;;
21095;SDS011;10706;49.036;12.112;2023-09-07T04:27:00;13.50;;;5.38;;
21095;SDS011;10706;49.036;12.112;2023-09-07T04:29:27;12.70;;;5.95;;
21095;SDS011;10706;49.036;12.112;2023-09-07T04:31:53;13.82;;;5.97;;
21095;SDS011;10706;49.036;12.112;2023-09-07T04:34:20;15.15;;;6.22;;
21095;SDS011;10706;49.036;12.112;2023-09-07T04:36:47;15.00;;;6.30;;
21095;SDS011;10706;49.036;12.112;2023-09-07T04:39:13;13.98;;;6.40;;
21095;SDS011;10706;49.036;12.112;2023-09-07T04:41:39;16.77;;;6.63;;
21095;SDS011;10706;49.036;12.112;2023-09-07T04:44:06;20.98;;;6.68;;
21095;SDS011;10706;49.036;12.112;2023-09-07T04:46:31;16.92;;;6.57;;
21095;SDS011;10706;49.036;12.112;2023-09-07T04:48:57;15.82;;;6.75;;
21095;SDS011;10706;49.036;12.112;2023-09-07T04:51:23;17.55;;;6.72;;
21095;SDS011;10706;49.036;12.112;2023-09-07T04:53:50;13.90;;;6.47;;
21095;SDS011;10706;49.036;12.112;2023-09-07T04:56:16;15.25;;;6.20;;
21095;SDS011;10706;49.036;12.112;2023-09-07T04:58:42;14.57;;;6.50;;
21095;SDS011;10706;49.036;12.112;2023-09-07T05:01:09;12.43;;;5.90;;
21095;SDS011;10706;49.036;12.112;2023-09-07T05:03:36;12.90;;;6.20;;
21095;SDS011;10706;49.036;12.112;2023-09-07T05:06:04;18.05;;;6.65;;
21095;SDS011;10706;49.036;12.112;2023-09-07T05:08:31;14.80;;;7.00;;
21095;SDS011;10706;49.036;12.112;2023-09-07T05:10:58;14.32;;;6.93;;
21095;SDS011;10706;49.036;12.112;2023-09-07T05:13:26;14.07;;;6.25;;
21095;SDS011;10706;49.036;12.112;2023-09-07T05:15:52;13.63;;;6.43;;
21095;SDS011;10706;49.036;12.112;2023-09-07T05:18:20;14.43;;;5.82;;
21095;SDS011;10706;49.036;12.112;2023-09-07T05:20:46;12.48;;;5.47;;
21095;SDS011;10706;49.036;12.112;2023-09-07T05:23:17;16.25;;;5.82;;
21095;SDS011;10706;49.036;12.112;2023-09-07T05:25:48;11.70;;;5.47;;
21095;SDS011;10706;49.036;12.112;2023-09-07T05:28:20;13.68;;;5.35;;
21095;SDS011;10706;49.036;12.112;2023-09-07T05:30:47;12.02;;;5.85;;
21095;SDS011;10706;49.036;12.112;2023-09-07T05:33:15;13.00;;;6.00;;
21095;SDS011;10706;49.036;12.112;2023-09-07T05:35:42;10.85;;;4.57;;
21095;SDS011;10706;49.036;12.112;2023-09-07T05:38:08;12.52;;;5.00;;
21095;SDS011;10706;49.036;12.112;2023-09-07T05:40:35;13.63;;;5.47;;
21095;SDS011;10706;49.036;12.112;2023-09-07T05:43:05;13.55;;;5.13;;
21095;SDS011;10706;49.036;12.112;2023-09-07T05:45:34;11.15;;;4.80;;
21095;SDS011;10706;49.036;12.112;2023-09-07T05:48:02;12.10;;;5.75;;
21095;SDS011;10706;49.036;12.112;2023-09-07T05:50:33;14.73;;;5.05;;
21095;SDS011;10706;49.036;12.112;2023-09-07T05:53:01;12.05;;;4.95;;
21095;SDS011;10706;49.036;12.112;2023-09-07T05:55:27;15.25;;;5.47;;
21095;SDS011;10706;49.036;12.112;2023-09-07T05:57:56;15.70;;;5.50;;
21095;SDS011;10706;49.036;12.112;2023-09-07T06:00:23;12.68;;;5.38;;
21095;SDS011;10706;49.036;12.112;2023-09-07T06:02:49;14.63;;;5.35;;
21095;SDS011;10706;49.036;12.112;2023-09-07T06:05:15;11.80;;;5.00;;
21095;SDS011;10706;49.036;12.112;2023-09-07T06:07:43;10.20;;;4.75;;
21095;SDS011;10706;49.036;12.112;2023-09-07T06:10:09;14.73;;;6.75;;
21095;SDS011;10706;49.036;12.112;2023-09-07T06:12:35;14.57;;;5.25;;
21095;SDS011;10706;49.036;12.112;2023-09-07T06:15:01;12.00;;;4.88;;
21095;SDS011;10706;49.036;12.112;2023-09-07T06:17:27;12.98;;;5.25;;
21095;SDS011;10706;49.036;12.112;2023-09-07T06:19:54;9.85;;;4.28;;
21095;SDS011;10706;49.036;12.112;2023-09-07T06:22:21;12.68;;;4.22;;
21095;SDS011;10706;49.036;12.112;2023-09-07T06:24:47;12.77;;;4.60;;
21095;SDS011;10706;49.036;12.112;2023-09-07T06:27:13;8.93;;;4.30;;
21095;SDS011;10706;49.036;12.112;2023-09-07T06:29:39;10.68;;;4.43;;
21095;SDS011;10706;49.036;12.112;2023-09-07T06:32:05;13.35;;;4.70;;
21095;SDS011;10706;49.036;12.112;2023-09-07T06:34:31;13.00;;;4.78;;
21095;SDS011;10706;49.036;12.112;2023-09-07T06:36:57;12.18;;;4.80;;
21095;SDS011;10706;49.036;12.112;2023-09-07T06:39:22;11.73;;;5.45;;
21095;SDS011;10706;49.036;12.112;2023-09-07T06:41:48;11.98;;;4.88;;
21095;SDS011;10706;49.036;12.112;2023-09-07T06:44:14;9.65;;;4.85;;
21095;SDS011;10706;49.036;12.112;2023-09-07T06:46:40;14.13;;;4.95;;
21095;SDS011;10706;49.036;12.112;2023-09-07T06:49:06;15.20;;;5.40;;
21095;SDS011;10706;49.036;12.112;2023-09-07T06:51:33;13.02;;;4.80;;
21095;SDS011;10706;49.036;12.112;2023-09-07T06:53:58;10.55;;;4.50;;
21095;SDS011;10706;49.036;12.112;2023-09-07T06:56:24;9.90;;;4.18;;
21095;SDS011;10706;49.036;12.112;2023-09-07T06:58:51;12.07;;;4.85;;
21095;SDS011;10706;49.036;12.112;2023-09-07T07:01:17;9.70;;;4.35;;
21095;SDS011;10706;49.036;12.112;2023-09-07T07:03:44;15.23;;;5.38;;
21095;SDS011;10706;49.036;12.112;2023-09-07T07:06:10;15.80;;;5.32;;
21095;SDS011;10706;49.036;12.112;2023-09-07T07:08:35;16.10;;;4.53;;
21095;SDS011;10706;49.036;12.112;2023-09-07T07:11:01;13.55;;;4.97;;
21095;SDS011;10706;49.036;12.112;2023-09-07T07:13:27;13.68;;;4.57;;
21095;SDS011;10706;49.036;12.112;2023-09-07T07:15:53;12.35;;;4.95;;
21095;SDS011;10706;49.036;12.112;2023-09-07T07:18:19;9.75;;;4.32;;
21095;SDS011;10706;49.036;12.112;2023-09-07T07:20:45;10.55;;;4.10;;
21095;SDS011;10706;49.036;12.112;2023-09-07T07:23:11;12.15;;;4.95;;
21095;SDS011;10706;49.036;12.112;2023-09-07T07:25:37;11.40;;;4.05;;
21095;SDS011;10706;49.036;12.112;2023-09-07T07:28:04;15.68;;;5.25;;
21095;SDS011;10706;49.036;12.112;2023-09-07T07:30:31;14.23;;;4.47;;
21095;SDS011;10706;49.036;12.112;2023-09-07T07:33:01;13.02;;;4.47;;
21095;SDS011;10706;49.036;12.112;2023-09-07T07:35:28;11.70;;;4.55;;
21095;SDS011;10706;49.036;12.112;2023-09-07T07:37:59;10.98;;;3.83;;
21095;SDS011;10706;49.036;12.112;2023-09-07T07:40:26;11.07;;;4.30;;
21095;SDS011;10706;49.036;12.112;2023-09-07T07:42:53;9.52;;;3.90;;
21095;SDS011;10706;49.036;12.112;2023-09-07T07:45:19;10.45;;;4.43;;
21095;SDS011;10706;49.036;12.112;2023-09-07T07:47:45;10.65;;;3.80;;
21095;SDS011;10706;49.036;12.112;2023-09-07T07:50:11;9.63;;;3.60;;
21095;SDS011;10706;49.036;12.112;2023-09-07T07:52:37;10.25;;;4.05;;
21095;SDS011;10706;49.036;12.112;2023-09-07T07:55:03;8.85;;;4.03;;
21095;SDS011;10706;49.036;12.112;2023-09-07T07:57:31;8.60;;;3.80;;
21095;SDS011;10706;49.036;12.112;2023-09-07T07:59:57;11.35;;;4.25;;
21095;SDS011;10706;49.036;12.112;2023-09-07T08:02:25;7.68;;;3.72;;
21095;SDS011;10706;49.036;12.112;2023-09-07T08:04:52;16.40;;;4.57;;
21095;SDS011;10706;49.036;12.112;2023-09-07T08:07:18;11.88;;;4.10;;
21095;SDS011;10706;49.036;12.112;2023-09-07T08:09:44;9.18;;;3.83;;
21095;SDS011;10706;49.036;12.112;2023-09-07T08:12:10;11.15;;;4.22;;
21095;SDS011;10706;49.036;12.112;2023-09-07T08:14:36;8.98;;;4.20;;
21095;SDS011;10706;49.036;12.112;2023-09-07T08:17:01;11.57;;;3.88;;
21095;SDS011;10706;49.036;12.112;2023-09-07T08:19:27;9.32;;;3.78;;
21095;SDS011;10706;49.036;12.112;2023-09-07T08:21:54;10.77;;;3.80;;
21095;SDS011;10706;49.036;12.112;2023-09-07T08:24:20;10.45;;;3.97;;
21095;SDS011;10706;49.036;12.112;2023-09-07T08:26:45;11.25;;;4.10;;
21095;SDS011;10706;49.036;12.112;2023-09-07T08:29:16;9.07;;;3.65;;
21095;SDS011;10706;49.036;12.112;2023-09-07T08:31:45;8.07;;;3.53;;
21095;SDS011;10706;49.036;12.112;2023-09-07T08:34:13;9.85;;;4.18;;
21095;SDS011;10706;49.036;12.112;2023-09-07T08:36:40;12.20;;;4.03;;
21095;SDS011;10706;49.036;12.112;2023-09-07T08:39:06;7.68;;;3.30;;
21095;SDS011;10706;49.036;12.112;2023-09-07T08:41:37;10.05;;;4.22;;
21095;SDS011;10706;49.036;12.112;2023-09-07T08:44:09;9.02;;;3.63;;
21095;SDS011;10706;49.036;12.112;2023-09-07T08:46:39;5.32;;;2.90;;
21095;SDS011;10706;49.036;12.112;2023-09-07T08:49:06;11.70;;;3.60;;
21095;SDS011;10706;49.036;12.112;2023-09-07T08:51:34;8.18;;;3.38;;
21095;SDS011;10706;49.036;12.112;2023-09-07T08:54:02;10.10;;;3.63;;
21095;SDS011;10706;49.036;12.112;2023-09-07T08:56:29;8.13;;;2.60;;
21095;SDS011;10706;49.036;12.112;2023-09-07T08:58:55;7.60;;;2.67;;
21095;SDS011;10706;49.036;12.112;2023-09-07T09:01:21;7.22;;;2.95;;
21095;SDS011;10706;49.036;12.112;2023-09-07T09:03:47;8.68;;;2.85;;
21095;SDS011;10706;49.036;12.112;2023-09-07T09:06:16;11.38;;;2.95;;
21095;SDS011;10706;49.036;12.112;2023-09-07T09:08:45;10.45;;;3.20;;
21095;SDS011;10706;49.036;12.112;2023-09-07T09:11:32;9.65;;;3.05;;
21095;SDS011;10706;49.036;12.112;2023-09-07T09:13:58;7.30;;;2.67;;
21095;SDS011;10706;49.036;12.112;2023-09-07T09:16:23;7.13;;;2.90;;
21095;SDS011;10706;49.036;12.112;2023-09-07T09:18:50;11.45;;;3.67;;
21095;SDS011;10706;49.036;12.112;2023-09-07T09:21:18;8.35;;;2.65;;
21095;SDS011;10706;49.036;12.112;2023-09-07T09:23:49;6.88;;;2.72;;
21095;SDS011;10706;49.036;12.112;2023-09-07T09:26:17;14.63;;;3.15;;
21095;SDS011;10706;49.036;12.112;2023-09-07T09:28:46;19.23;;;3.22;;
21095;SDS011;10706;49.036;12.112;2023-09-07T09:31:16;6.97;;;2.63;;
21095;SDS011;10706;49.036;12.112;2023-09-07T09:33:42;7.80;;;3.17;;
21095;SDS011;10706;49.036;12.112;2023-09-07T09:36:12;6.25;;;2.60;;
21095;SDS011;10706;49.036;12.112;2023-09-07T09:38:38;6.82;;;2.83;;
21095;SDS011;10706;49.036;12.112;2023-09-07T09:41:09;7.18;;;2.75;;
21095;SDS011;10706;49.036;12.112;2023-09-07T09:43:40;10.48;;;3.08;;
21095;SDS011;10706;49.036;12.112;2023-09-07T09:46:13;5.68;;;2.60;;
21095;SDS011;10706;49.036;12.112;2023-09-07T09:48:43;7.30;;;2.80;;
21095;SDS011;10706;49.036;12.112;2023-09-07T09:51:09;8.10;;;2.30;;
21095;SDS011;10706;49.036;12.112;2023-09-07T09:53:38;7.93;;;3.10;;
21095;SDS011;10706;49.036;12.112;2023-09-07T09:56:05;10.90;;;2.70;;
21095;SDS011;10706;49.036;12.112;2023-09-07T09:58:31;7.85;;;2.78;;
21095;SDS011;10706;49.036;12.112;2023-09-07T10:00:58;7.53;;;2.83;;
21095;SDS011;10706;49.036;12.112;2023-09-07T10:03:27;6.93;;;2.50;;
21095;SDS011;10706;49.036;12.112;2023-09-07T10:06:08;9.35;;;2.92;;
21095;SDS011;10706;49.036;12.112;2023-09-07T10:08:35;7.40;;;2.88;;
21095;SDS011;10706;49.036;12.112;2023-09-07T10:11:06;9.90;;;2.60;;
21095;SDS011;10706;49.036;12.112;2023-09-07T10:13:36;7.53;;;2.70;;
21095;SDS011;10706;49.036;12.112;2023-09-07T10:16:02;8.57;;;2.63;;
21095;SDS011;10706;49.036;12.112;2023-09-07T10:18:38;6.50;;;2.40;;
21095;SDS011;10706;49.036;12.112;2023-09-07T10:21:04;6.90;;;2.70;;
21095;SDS011;10706;49.036;12.112;2023-09-07T10:23:41;6.03;;;2.67;;
21095;SDS011;10706;49.036;12.112;2023-09-07T10:26:12;8.27;;;2.80;;
21095;SDS011;10706;49.036;12.112;2023-09-07T10:28:40;10.15;;;2.92;;
21095;SDS011;10706;49.036;12.112;2023-09-07T10:31:18;8.73;;;3.25;;
21095;SDS011;10706;49.036;12.112;2023-09-07T10:33:45;6.78;;;2.80;;
21095;SDS011;10706;49.036;12.112;2023-09-07T10:36:21;6.03;;;2.72;;
21095;SDS011;10706;49.036;12.112;2023-09-07T10:38:49;6.88;;;2.70;;
21095;SDS011;10706;49.036;12.112;2023-09-07T10:41:19;6.90;;;2.67;;
21095;SDS011;10706;49.036;12.112;2023-09-07T10:43:46;6.00;;;2.70;;
21095;SDS011;10706;49.036;12.112;2023-09-07T10:46:18;5.63;;;2.70;;
21095;SDS011;10706;49.036;12.112;2023-09-07T10:48:52;7.72;;;2.97;;
21095;SDS011;10706;49.036;12.112;2023-09-07T10:51:19;7.88;;;2.75;;
21095;SDS011;10706;49.036;12.112;2023-09-07T10:53:45;8.43;;;2.45;;
21095;SDS011;10706;49.036;12.112;2023-09-07T10:56:11;6.20;;;2.80;;
21095;SDS011;10706;49.036;12.112;2023-09-07T10:58:37;5.38;;;2.75;;
21095;SDS011;10706;49.036;12.112;2023-09-07T11:01:05;6.97;;;2.70;;
21095;SDS011;10706;49.036;12.112;2023-09-07T11:03:31;7.35;;;3.00;;
21095;SDS011;10706;49.036;12.112;2023-09-07T11:08:50;5.55;;;2.95;;
21095;SDS011;10706;49.036;12.112;2023-09-07T11:11:15;9.52;;;2.88;;
21095;SDS011;10706;49.036;12.112;2023-09-07T11:13:42;9.32;;;2.67;;
21095;SDS011;10706;49.036;12.112;2023-09-07T11:16:08;6.40;;;3.00;;
21095;SDS011;10706;49.036;12.112;2023-09-07T11:18:34;7.82;;;3.05;;
21095;SDS011;10706;49.036;12.112;2023-09-07T11:21:01;7.13;;;2.80;;
21095;SDS011;10706;49.036;12.112;2023-09-07T11:23:29;10.25;;;2.90;;
21095;SDS011;10706;49.036;12.112;2023-09-07T11:26:03;9.95;;;3.13;;
21095;SDS011;10706;49.036;12.112;2023-09-07T11:28:38;7.10;;;2.53;;
21095;SDS011;10706;49.036;12.112;2023-09-07T11:31:05;7.82;;;2.65;;
21095;SDS011;10706;49.036;12.112;2023-09-07T11:33:32;8.07;;;2.50;;
21095;SDS011;10706;49.036;12.112;2023-09-07T11:35:58;6.85;;;2.78;;
21095;SDS011;10706;49.036;12.112;2023-09-07T11:38:29;7.18;;;2.92;;
21095;SDS011;10706;49.036;12.112;2023-09-07T11:41:00;6.95;;;2.80;;
21095;SDS011;10706;49.036;12.112;2023-09-07T11:43:26;8.73;;;3.00;;
21095;SDS011;10706;49.036;12.112;2023-09-07T11:45:51;7.30;;;2.97;;
21095;SDS011;10706;49.036;12.112;2023-09-07T11:48:17;6.97;;;2.90;;
21095;SDS011;10706;49.036;12.112;2023-09-07T11:50:43;6.60;;;2.78;;
21095;SDS011;10706;49.036;12.112;2023-09-07T11:53:09;9.20;;;3.50;;
21095;SDS011;10706;49.036;12.112;2023-09-07T11:55:35;8.82;;;3.17;;
21095;SDS011;10706;49.036;12.112;2023-09-07T11:58:01;6.43;;;2.80;;
21095;SDS011;10706;49.036;12.112;2023-09-07T12:00:30;7.20;;;3.10;;
21095;SDS011;10706;49.036;12.112;2023-09-07T12:02:56;7.35;;;3.35;;
21095;SDS011;10706;49.036;12.112;2023-09-07T12:05:23;5.72;;;2.80;;
21095;SDS011;10706;49.036;12.112;2023-09-07T12:07:49;7.30;;;3.17;;
21095;SDS011;10706;49.036;12.112;2023-09-07T12:10:15;7.75;;;3.20;;
21095;SDS011;10706;49.036;12.112;2023-09-07T12:12:41;8.60;;;3.22;;
21095;SDS011;10706;49.036;12.112;2023-09-07T12:15:08;8.32;;;2.83;;
21095;SDS011;10706;49.036;12.112;2023-09-07T12:17:38;6.97;;;2.70;;
21095;SDS011;10706;49.036;12.112;2023-09-07T12:20:05;10.60;;;3.00;;
21095;SDS011;10706;49.036;12.112;2023-09-07T12:22:38;7.38;;;3.00;;
21095;SDS011;10706;49.036;12.112;2023-09-07T12:25:05;6.05;;;2.85;;
21095;SDS011;10706;49.036;12.112;2023-09-07T12:27:31;10.43;;;3.15;;
21095;SDS011;10706;49.036;12.112;2023-09-07T12:30:03;7.15;;;2.78;;
21095;SDS011;10706;49.036;12.112;2023-09-07T12:32:33;8.18;;;2.90;;
21095;SDS011;10706;49.036;12.112;2023-09-07T12:34:59;6.88;;;2.80;;
21095;SDS011;10706;49.036;12.112;2023-09-07T12:37:25;6.68;;;2.85;;
21095;SDS011;10706;49.036;12.112;2023-09-07T12:39:51;6.85;;;3.05;;
21095;SDS011;10706;49.036;12.112;2023-09-07T12:42:17;8.52;;;3.08;;
21095;SDS011;10706;49.036;12.112;2023-09-07T12:44:43;11.98;;;3.03;;
21095;SDS011;10706;49.036;12.112;2023-09-07T12:47:09;6.63;;;2.92;;
21095;SDS011;10706;49.036;12.112;2023-09-07T12:49:35;8.13;;;3.38;;
21095;SDS011;10706;49.036;12.112;2023-09-07T12:52:01;8.93;;;2.95;;
21095;SDS011;10706;49.036;12.112;2023-09-07T12:54:33;8.05;;;2.63;;
21095;SDS011;10706;49.036;12.112;2023-09-07T12:57:00;10.88;;;3.22;;
21095;SDS011;10706;49.036;12.112;2023-09-07T12:59:26;6.75;;;3.08;;
21095;SDS011;10706;49.036;12.112;2023-09-07T13:01:52;7.93;;;2.65;;
21095;SDS011;10706;49.036;12.112;2023-09-07T13:04:20;8.10;;;3.20;;
21095;SDS011;10706;49.036;12.112;2023-09-07T13:06:46;8.07;;;2.58;;
21095;SDS011;10706;49.036;12.112;2023-09-07T13:09:12;9.15;;;2.92;;
21095;SDS011;10706;49.036;12.112;2023-09-07T13:11:38;7.28;;;2.95;;
21095;SDS011;10706;49.036;12.112;2023-09-07T13:14:07;5.60;;;2.75;;
21095;SDS011;10706;49.036;12.112;2023-09-07T13:16:33;6.38;;;2.72;;
21095;SDS011;10706;49.036;12.112;2023-09-07T13:18:59;6.93;;;2.95;;
21095;SDS011;10706;49.036;12.112;2023-09-07T13:21:25;5.05;;;2.70;;
21095;SDS011;10706;49.036;12.112;2023-09-07T13:23:50;8.20;;;3.08;;
21095;SDS011;10706;49.036;12.112;2023-09-07T13:26:16;7.13;;;3.03;;
21095;SDS011;10706;49.036;12.112;2023-09-07T13:28:42;10.02;;;3.90;;
21095;SDS011;10706;49.036;12.112;2023-09-07T13:31:07;7.95;;;3.08;;
21095;SDS011;10706;49.036;12.112;2023-09-07T13:33:33;7.45;;;2.75;;
21095;SDS011;10706;49.036;12.112;2023-09-07T13:35:59;6.80;;;2.70;;
21095;SDS011;10706;49.036;12.112;2023-09-07T13:38:25;5.95;;;2.95;;
21095;SDS011;10706;49.036;12.112;2023-09-07T13:40:51;4.63;;;2.60;;
21095;SDS011;10706;49.036;12.112;2023-09-07T13:43:17;5.38;;;2.60;;
21095;SDS011;10706;49.036;12.112;2023-09-07T13:45:43;5.05;;;2.45;;
21095;SDS011;10706;49.036;12.112;2023-09-07T13:48:09;6.55;;;2.90;;
21095;SDS011;10706;49.036;12.112;2023-09-07T13:50:35;6.22;;;2.88;;
21095;SDS011;10706;49.036;12.112;2023-09-07T13:53:01;7.47;;;2.63;;
21095;SDS011;10706;49.036;12.112;2023-09-07T13:55:26;6.13;;;2.88;;
21095;SDS011;10706;49.036;12.112;2023-09-07T13:57:53;11.98;;;3.28;;
21095;SDS011;10706;49.036;12.112;2023-09-07T14:00:19;7.35;;;2.92;;
21095;SDS011;10706;49.036;12.112;2023-09-07T14:02:44;8.68;;;2.90;;
21095;SDS011;10706;49.036;12.112;2023-09-07T14:05:10;8.77;;;2.97;;
21095;SDS011;10706;49.036;12.112;2023-09-07T14:07:36;9.63;;;3.13;;
21095;SDS011;10706;49.036;12.112;2023-09-07T14:10:02;6.00;;;2.85;;
21095;SDS011;10706;49.036;12.112;2023-09-07T14:12:28;6.25;;;3.20;;
21095;SDS011;10706;49.036;12.112;2023-09-07T14:14:53;8.38;;;2.90;;
21095;SDS011;10706;49.036;12.112;2023-09-07T14:17:19;9.45;;;3.28;;
21095;SDS011;10706;49.036;12.112;2023-09-07T14:19:45;8.32;;;3.40;;
21095;SDS011;10706;49.036;12.112;2023-09-07T14:22:11;7.07;;;2.97;;
21095;SDS011;10706;49.036;12.112;2023-09-07T14:24:37;6.47;;;2.80;;
21095;SDS011;10706;49.036;12.112;2023-09-07T14:27:03;7.45;;;2.88;;